createdAt,value
2023-02-17T00:00:35.422Z,90.79
2023-02-17T00:01:35.386Z,90.89
2023-02-17T00:02:38.422Z,90.69
2023-02-17T00:03:35.396Z,90.89
2023-02-17T00:04:35.492Z,91.10
2023-02-17T00:05:35.361Z,91.00
2023-02-17T00:06:35.381Z,91.00
2023-02-17T00:07:35.322Z,90.89
2023-02-17T00:08:35.343Z,91.00
2023-02-17T00:09:35.297Z,90.89
2023-02-17T00:10:35.331Z,91.10
2023-02-17T00:11:35.292Z,91.10
2023-02-17T00:12:35.296Z,91.27
2023-02-17T00:13:35.284Z,91.10
2023-02-17T00:14:35.275Z,91.20
2023-02-17T00:15:35.274Z,91.27
2023-02-17T00:16:35.218Z,91.27
2023-02-17T00:17:38.240Z,91.27
2023-02-17T00:18:35.216Z,90.95
2023-02-17T00:19:35.213Z,90.75
2023-02-17T00:20:35.185Z,90.54
2023-02-17T00:21:35.202Z,90.75
2023-02-17T00:22:35.344Z,91.06
2023-02-17T00:23:35.178Z,90.95
2023-02-17T00:24:35.170Z,90.85
2023-02-17T00:25:35.168Z,91.27
2023-02-17T00:26:35.304Z,91.06
2023-02-17T00:27:35.135Z,91.06
2023-02-17T00:28:35.104Z,90.95
2023-02-17T00:29:35.089Z,90.85
2023-02-17T00:30:35.146Z,90.39
2023-02-17T00:31:35.145Z,90.29
2023-02-17T00:32:38.093Z,90.39
2023-02-17T00:33:35.074Z,90.60
2023-02-17T00:34:35.104Z,90.81
2023-02-17T00:35:35.050Z,90.50
2023-02-17T00:36:35.052Z,90.39
2023-02-17T00:37:35.041Z,90.50
2023-02-17T00:38:35.012Z,90.29
2023-02-17T00:39:35.037Z,90.29
2023-02-17T00:40:35.022Z,90.50
2023-02-17T00:41:35.000Z,90.39
2023-02-17T00:42:34.980Z,90.08
2023-02-17T00:43:34.953Z,89.77
2023-02-17T00:44:34.937Z,90.08
2023-02-17T00:45:34.952Z,89.87
2023-02-17T00:46:34.976Z,89.87
2023-02-17T00:47:37.953Z,89.56
2023-02-17T00:48:34.954Z,89.56
2023-02-17T00:49:35.063Z,89.46
2023-02-17T00:50:34.909Z,89.25
2023-02-17T00:51:34.897Z,89.04
2023-02-17T00:52:34.864Z,88.94
2023-02-17T00:53:34.888Z,88.84
2023-02-17T00:54:34.847Z,89.25
2023-02-17T00:55:34.836Z,89.56
2023-02-17T00:56:34.816Z,89.67
2023-02-17T00:57:34.889Z,89.25
2023-02-17T00:58:34.825Z,89.46
2023-02-17T00:59:34.799Z,90.02
2023-02-17T01:00:34.825Z,89.81
2023-02-17T01:01:34.836Z,89.81
2023-02-17T01:02:38.022Z,89.81
2023-02-17T01:03:34.778Z,90.12
2023-02-17T01:04:34.756Z,90.23
2023-02-17T01:05:34.759Z,90.12
2023-02-17T01:06:34.728Z,90.12
2023-02-17T01:07:34.738Z,90.02
2023-02-17T01:08:34.701Z,90.12
2023-02-17T01:09:34.730Z,90.64
2023-02-17T01:10:34.681Z,90.75
2023-02-17T01:11:34.707Z,90.54
2023-02-17T01:12:34.693Z,90.23
2023-02-17T01:13:34.690Z,90.02
2023-02-17T01:14:34.662Z,90.64
2023-02-17T01:15:34.663Z,90.64
2023-02-17T01:16:34.625Z,90.33
2023-02-17T01:17:37.713Z,90.33
2023-02-17T01:18:34.640Z,90.75
2023-02-17T01:19:34.621Z,90.85
2023-02-17T01:20:34.603Z,90.95
2023-02-17T01:21:34.576Z,90.95
2023-02-17T01:22:34.571Z,90.64
2023-02-17T01:23:34.554Z,90.64
2023-02-17T01:24:34.575Z,90.75
2023-02-17T01:25:34.554Z,90.85
2023-02-17T01:26:34.545Z,90.85
2023-02-17T01:27:34.504Z,90.75
2023-02-17T01:28:34.503Z,90.44
2023-02-17T01:29:34.484Z,90.33
2023-02-17T01:30:34.550Z,90.12
2023-02-17T01:31:34.559Z,90.33
2023-02-17T01:32:37.491Z,90.54
2023-02-17T01:33:34.484Z,90.33
2023-02-17T01:34:34.455Z,90.23
2023-02-17T01:35:34.415Z,90.12
2023-02-17T01:36:34.410Z,90.12
2023-02-17T01:37:34.409Z,90.54
2023-02-17T01:38:34.396Z,90.85
2023-02-17T01:39:34.378Z,90.95
2023-02-17T01:40:34.373Z,90.64
2023-02-17T01:41:34.490Z,90.64
2023-02-17T01:42:34.351Z,90.75
2023-02-17T01:43:34.338Z,90.85
2023-02-17T01:44:34.360Z,91.16
2023-02-17T01:45:34.330Z,91.37
2023-02-17T01:46:34.432Z,91.68
2023-02-17T01:47:37.327Z,91.68
2023-02-17T01:48:34.323Z,91.58
2023-02-17T01:49:34.286Z,91.37
2023-02-17T01:50:34.271Z,91.37
2023-02-17T01:51:34.258Z,91.37
2023-02-17T01:52:34.265Z,91.47
2023-02-17T01:53:34.240Z,91.58
2023-02-17T01:54:34.250Z,91.27
2023-02-17T01:55:34.242Z,91.16
2023-02-17T01:56:34.209Z,91.27
2023-02-17T01:57:34.237Z,90.95
2023-02-17T01:58:34.182Z,91.06
2023-02-17T01:59:34.177Z,91.16
2023-02-17T02:00:34.188Z,91.27
2023-02-17T02:01:34.209Z,91.16
2023-02-17T02:02:37.229Z,91.16
2023-02-17T02:03:34.170Z,91.27
2023-02-17T02:04:34.157Z,91.37
2023-02-17T02:05:35.483Z,91.68
2023-02-17T02:06:34.099Z,91.58
2023-02-17T02:07:34.091Z,91.47
2023-02-17T02:08:34.097Z,91.16
2023-02-17T02:09:34.206Z,91.06
2023-02-17T02:10:34.061Z,91.06
2023-02-17T02:11:34.074Z,91.06
2023-02-17T02:12:34.035Z,91.12
2023-02-17T02:13:34.033Z,91.33
2023-02-17T02:14:34.052Z,91.22
2023-02-17T02:15:34.036Z,91.12
2023-02-17T02:16:34.090Z,90.81
2023-02-17T02:17:37.060Z,90.91
2023-02-17T02:18:34.017Z,90.81
2023-02-17T02:19:33.980Z,90.91
2023-02-17T02:20:33.984Z,90.91
2023-02-17T02:21:33.950Z,90.91
2023-02-17T02:22:33.990Z,90.60
2023-02-17T02:23:33.930Z,91.02
2023-02-17T02:24:33.929Z,91.33
2023-02-17T02:25:33.922Z,91.12
2023-02-17T02:26:33.940Z,91.22
2023-02-17T02:27:33.891Z,90.91
2023-02-17T02:28:33.894Z,90.91
2023-02-17T02:29:33.904Z,90.91
2023-02-17T02:30:33.867Z,90.91
2023-02-17T02:31:33.911Z,90.70
2023-02-17T02:32:36.843Z,90.70
2023-02-17T02:33:33.883Z,90.60
2023-02-17T02:34:33.872Z,90.70
2023-02-17T02:35:33.813Z,90.60
2023-02-17T02:36:33.803Z,90.60
2023-02-17T02:37:33.788Z,90.60
2023-02-17T02:38:33.784Z,90.70
2023-02-17T02:39:33.834Z,90.70
2023-02-17T02:40:33.791Z,90.60
2023-02-17T02:41:33.751Z,90.70
2023-02-17T02:42:33.768Z,90.91
2023-02-17T02:43:33.736Z,91.02
2023-02-17T02:44:33.724Z,91.22
2023-02-17T02:45:33.719Z,91.33
2023-02-17T02:46:33.784Z,91.22
2023-02-17T02:47:36.686Z,91.02
2023-02-17T02:48:33.718Z,90.66
2023-02-17T02:49:33.691Z,90.45
2023-02-17T02:50:33.661Z,90.35
2023-02-17T02:51:33.790Z,90.25
2023-02-17T02:52:33.657Z,89.73
2023-02-17T02:53:33.626Z,89.94
2023-02-17T02:54:33.613Z,89.73
2023-02-17T02:55:33.626Z,89.83
2023-02-17T02:56:33.657Z,89.94
2023-02-17T02:57:33.586Z,89.62
2023-02-17T02:58:33.598Z,89.73
2023-02-17T02:59:33.590Z,89.73
2023-02-17T03:00:33.587Z,90.04
2023-02-17T03:01:33.701Z,89.48
2023-02-17T03:02:36.556Z,89.89
2023-02-17T03:03:33.566Z,89.17
2023-02-17T03:04:33.552Z,89.27
2023-02-17T03:05:33.539Z,89.37
2023-02-17T03:06:33.519Z,89.17
2023-02-17T03:07:33.485Z,89.58
2023-02-17T03:08:33.502Z,89.17
2023-02-17T03:09:33.470Z,89.17
2023-02-17T03:10:33.489Z,89.17
2023-02-17T03:11:33.456Z,89.17
2023-02-17T03:12:33.421Z,89.48
2023-02-17T03:13:33.452Z,89.58
2023-02-17T03:14:33.444Z,89.58
2023-02-17T03:15:33.555Z,89.27
2023-02-17T03:16:33.482Z,89.58
2023-02-17T03:17:36.402Z,89.37
2023-02-17T03:18:33.409Z,89.17
2023-02-17T03:19:33.348Z,89.06
2023-02-17T03:20:33.397Z,89.17
2023-02-17T03:21:33.371Z,88.65
2023-02-17T03:22:33.353Z,88.40
2023-02-17T03:23:33.373Z,88.30
2023-02-17T03:24:33.330Z,88.09
2023-02-17T03:25:33.330Z,88.09
2023-02-17T03:26:33.302Z,87.88
2023-02-17T03:27:33.304Z,86.74
2023-02-17T03:28:33.301Z,86.91
2023-02-17T03:29:33.304Z,87.22
2023-02-17T03:30:33.268Z,87.43
2023-02-17T03:31:33.282Z,87.53
2023-02-17T03:32:36.271Z,87.95
2023-02-17T03:33:33.251Z,87.74
2023-02-17T03:34:33.214Z,87.53
2023-02-17T03:35:33.240Z,87.22
2023-02-17T03:36:33.217Z,87.32
2023-02-17T03:37:33.199Z,87.22
2023-02-17T03:38:33.194Z,87.22
2023-02-17T03:39:33.174Z,87.22
2023-02-17T03:40:33.179Z,86.70
2023-02-17T03:41:33.125Z,85.56
2023-02-17T03:42:33.150Z,86.08
2023-02-17T03:43:33.103Z,86.15
2023-02-17T03:44:33.126Z,86.45
2023-02-17T03:45:33.169Z,86.66
2023-02-17T03:46:33.105Z,86.91
2023-02-17T03:47:36.124Z,86.49
2023-02-17T03:48:33.066Z,84.59
2023-02-17T03:49:33.044Z,85.00
2023-02-17T03:50:33.086Z,82.48
2023-02-17T03:51:33.058Z,82.17
2023-02-17T03:52:33.044Z,83.26
2023-02-17T03:53:33.035Z,83.37
2023-02-17T03:54:33.029Z,83.68
2023-02-17T03:55:33.004Z,82.86
2023-02-17T03:56:33.006Z,83.06
2023-02-17T03:57:33.029Z,83.26
2023-02-17T03:58:32.956Z,82.75
2023-02-17T03:59:32.966Z,82.95
2023-02-17T04:00:32.976Z,83.68
2023-02-17T04:01:32.941Z,83.16
2023-02-17T04:02:36.035Z,82.75
2023-02-17T04:03:32.913Z,83.06
2023-02-17T04:04:32.914Z,82.95
2023-02-17T04:05:32.892Z,82.65
2023-02-17T04:06:32.871Z,80.99
2023-02-17T04:07:32.883Z,80.33
2023-02-17T04:08:32.865Z,79.81
2023-02-17T04:09:32.874Z,82.19
2023-02-17T04:10:32.822Z,80.81
2023-02-17T04:11:33.777Z,80.29
2023-02-17T04:12:32.842Z,79.47
2023-02-17T04:13:32.863Z,78.64
2023-02-17T04:14:32.826Z,77.47
2023-02-17T04:15:32.802Z,77.67
2023-02-17T04:16:32.804Z,78.39
2023-02-17T04:17:35.782Z,79.12
2023-02-17T04:18:32.788Z,80.98
2023-02-17T04:19:32.794Z,81.29
2023-02-17T04:20:32.724Z,82.78
2023-02-17T04:21:32.720Z,82.78
2023-02-17T04:22:32.745Z,83.19
2023-02-17T04:23:32.730Z,83.50
2023-02-17T04:24:32.685Z,81.68
2023-02-17T04:25:32.672Z,82.57
2023-02-17T04:26:32.707Z,82.29
2023-02-17T04:27:32.645Z,82.09
2023-02-17T04:28:32.643Z,81.23
2023-02-17T04:29:32.625Z,82.26
2023-02-17T04:30:32.691Z,83.91
2023-02-17T04:31:32.723Z,81.43
2023-02-17T04:32:35.618Z,78.43
2023-02-17T04:33:32.607Z,76.95
2023-02-17T04:34:32.608Z,79.63
2023-02-17T04:35:32.593Z,80.01
2023-02-17T04:36:32.556Z,77.12
2023-02-17T04:37:32.554Z,73.43
2023-02-17T04:38:32.551Z,71.23
2023-02-17T04:39:32.565Z,72.88
2023-02-17T04:40:32.557Z,72.23
2023-02-17T04:41:32.531Z,74.40
2023-02-17T04:42:32.519Z,76.98
2023-02-17T04:43:32.508Z,77.73
2023-02-17T04:44:32.499Z,76.90
2023-02-17T04:45:32.494Z,74.95
2023-02-17T04:46:32.705Z,73.71
2023-02-17T04:47:35.447Z,71.41
2023-02-17T04:48:32.461Z,71.20
2023-02-17T04:49:32.461Z,70.44
2023-02-17T04:50:32.432Z,70.86
2023-02-17T04:51:32.435Z,71.37
2023-02-17T04:52:32.399Z,70.86
2023-02-17T04:53:32.424Z,72.33
2023-02-17T04:54:32.416Z,71.61
2023-02-17T04:55:32.378Z,70.75
2023-02-17T04:56:32.379Z,70.03
2023-02-17T04:57:32.369Z,70.54
2023-02-17T04:58:32.372Z,72.50
2023-02-17T04:59:32.352Z,73.54
2023-02-17T05:00:32.337Z,73.77
2023-02-17T05:02:35.326Z,74.60
2023-02-17T05:03:32.455Z,75.15
2023-02-17T05:05:32.288Z,76.08
2023-02-17T05:06:32.244Z,76.70
2023-02-17T05:07:32.239Z,77.56
2023-02-17T05:08:32.232Z,79.01
2023-02-17T05:09:32.221Z,78.28
2023-02-17T05:10:32.236Z,78.32
2023-02-17T05:11:32.208Z,78.84
2023-02-17T05:12:32.191Z,77.70
2023-02-17T05:13:32.193Z,78.42
2023-02-17T05:14:32.204Z,79.15
2023-02-17T05:15:34.733Z,79.87
2023-02-17T05:16:32.143Z,78.25
2023-02-17T05:17:35.157Z,78.77
2023-02-17T05:18:32.144Z,78.98
2023-02-17T05:19:32.162Z,79.77
2023-02-17T05:20:32.218Z,79.80
2023-02-17T05:21:32.097Z,80.53
2023-02-17T05:22:32.105Z,81.15
2023-02-17T05:23:32.096Z,80.22
2023-02-17T05:24:32.067Z,80.53
2023-02-17T05:25:32.046Z,81.35
2023-02-17T05:26:32.074Z,81.15
2023-02-17T05:27:32.047Z,81.25
2023-02-17T05:28:32.037Z,81.46
2023-02-17T05:29:32.005Z,81.46
2023-02-17T05:30:32.057Z,81.87
2023-02-17T05:31:32.125Z,81.67
2023-02-17T05:32:34.988Z,81.81
2023-02-17T05:33:32.006Z,82.32
2023-02-17T05:34:32.161Z,82.12
2023-02-17T05:35:34.118Z,82.84
2023-02-17T05:36:31.927Z,83.46
2023-02-17T05:37:31.959Z,83.56
2023-02-17T05:38:31.938Z,83.46
2023-02-17T05:39:31.907Z,83.36
2023-02-17T05:40:31.932Z,83.46
2023-02-17T05:41:31.942Z,84.19
2023-02-17T05:42:31.910Z,84.19
2023-02-17T05:43:31.871Z,84.39
2023-02-17T05:44:31.862Z,84.84
2023-02-17T05:45:31.892Z,85.16
2023-02-17T05:46:31.868Z,85.26
2023-02-17T05:47:34.822Z,84.84
2023-02-17T05:48:31.832Z,84.95
2023-02-17T05:49:31.831Z,84.95
2023-02-17T05:50:31.809Z,84.22
2023-02-17T05:51:31.818Z,84.74
2023-02-17T05:52:31.791Z,83.05
2023-02-17T05:53:31.814Z,82.01
2023-02-17T05:54:31.788Z,80.77
2023-02-17T05:55:31.765Z,80.05
2023-02-17T05:56:31.731Z,79.49
2023-02-17T05:57:31.726Z,80.32
2023-02-17T05:58:31.681Z,79.70
2023-02-17T05:59:31.702Z,78.74
2023-02-17T06:00:31.760Z,77.19
2023-02-17T06:01:31.700Z,75.39
2023-02-17T06:02:34.700Z,75.26
2023-02-17T06:03:31.669Z,74.95
2023-02-17T06:04:31.713Z,74.95
2023-02-17T06:05:31.599Z,75.87
2023-02-17T06:06:31.574Z,76.18
2023-02-17T06:07:31.557Z,77.11
2023-02-17T06:08:31.553Z,77.94
2023-02-17T06:09:31.596Z,76.60
2023-02-17T06:10:31.537Z,76.60
2023-02-17T06:11:31.553Z,77.46
2023-02-17T06:12:31.539Z,78.08
2023-02-17T06:13:31.682Z,78.28
2023-02-17T06:14:32.443Z,79.11
2023-02-17T06:15:31.504Z,79.42
2023-02-17T06:16:31.561Z,79.11
2023-02-17T06:17:34.491Z,78.28
2023-02-17T06:18:31.495Z,76.84
2023-02-17T06:19:31.440Z,76.32
2023-02-17T06:20:31.462Z,75.70
2023-02-17T06:21:31.441Z,75.60
2023-02-17T06:22:31.574Z,75.70
2023-02-17T06:23:31.422Z,75.87
2023-02-17T06:24:31.414Z,75.70
2023-02-17T06:25:31.402Z,75.49
2023-02-17T06:26:31.366Z,76.90
2023-02-17T06:27:31.383Z,77.42
2023-02-17T06:28:32.110Z,78.05
2023-02-17T06:29:31.367Z,78.49
2023-02-17T06:30:31.383Z,79.52
2023-02-17T06:31:31.421Z,79.73
2023-02-17T06:32:34.325Z,80.15
2023-02-17T06:33:31.311Z,79.36
2023-02-17T06:34:31.313Z,77.19
2023-02-17T06:35:31.301Z,76.53
2023-02-17T06:36:31.261Z,76.12
2023-02-17T06:37:31.251Z,75.36
2023-02-17T06:38:31.277Z,74.74
2023-02-17T06:39:31.226Z,75.57
2023-02-17T06:40:31.214Z,76.08
2023-02-17T06:41:31.235Z,76.60
2023-02-17T06:42:31.250Z,77.11
2023-02-17T06:43:31.212Z,76.39
2023-02-17T06:44:31.192Z,75.87
2023-02-17T06:45:31.203Z,76.29
2023-02-17T06:46:31.182Z,77.01
2023-02-17T06:47:34.361Z,76.01
2023-02-17T06:48:31.141Z,74.88
2023-02-17T06:49:31.144Z,74.26
2023-02-17T06:50:31.132Z,74.95
2023-02-17T06:51:31.123Z,75.67
2023-02-17T06:52:31.090Z,75.98
2023-02-17T06:53:31.104Z,76.18
2023-02-17T06:54:31.082Z,77.84
2023-02-17T06:55:31.052Z,78.77
2023-02-17T06:56:31.060Z,78.49
2023-02-17T06:57:31.040Z,78.18
2023-02-17T06:58:31.075Z,76.32
2023-02-17T06:59:31.014Z,75.77
2023-02-17T07:00:31.105Z,75.26
2023-02-17T07:01:31.020Z,75.98
2023-02-17T07:02:34.103Z,77.01
2023-02-17T07:03:31.016Z,78.56
2023-02-17T07:04:31.001Z,78.25
2023-02-17T07:05:30.992Z,79.18
2023-02-17T07:06:30.977Z,78.70
2023-02-17T07:07:30.970Z,75.15
2023-02-17T07:08:32.020Z,75.15
2023-02-17T07:09:30.949Z,76.70
2023-02-17T07:10:30.966Z,77.22
2023-02-17T07:11:30.919Z,77.73
2023-02-17T07:12:30.915Z,80.00
2023-02-17T07:13:30.901Z,79.59
2023-02-17T07:14:30.952Z,80.32
2023-02-17T07:15:30.870Z,80.11
2023-02-17T07:16:30.875Z,79.08
2023-02-17T07:17:33.978Z,80.42
2023-02-17T07:18:30.838Z,79.90
2023-02-17T07:19:30.805Z,80.73
2023-02-17T07:20:30.824Z,81.45
2023-02-17T07:21:30.816Z,82.48
2023-02-17T07:22:30.812Z,82.17
2023-02-17T07:23:30.771Z,81.96
2023-02-17T07:24:30.752Z,80.32
2023-02-17T07:25:30.746Z,80.21
2023-02-17T07:26:30.759Z,80.73
2023-02-17T07:27:30.753Z,82.28
2023-02-17T07:28:30.764Z,82.17
2023-02-17T07:29:30.734Z,82.59
2023-02-17T07:30:30.822Z,82.38
2023-02-17T07:31:30.753Z,82.17
2023-02-17T07:32:33.712Z,82.48
2023-02-17T07:33:30.716Z,82.69
2023-02-17T07:34:30.666Z,83.00
2023-02-17T07:35:30.654Z,80.21
2023-02-17T07:36:30.665Z,76.56
2023-02-17T07:37:30.638Z,76.67
2023-02-17T07:38:31.628Z,77.49
2023-02-17T07:39:30.666Z,77.35
2023-02-17T07:40:30.594Z,77.76
2023-02-17T07:41:30.617Z,77.45
2023-02-17T07:42:30.571Z,76.63
2023-02-17T07:43:30.563Z,76.29
2023-02-17T07:44:30.603Z,75.87
2023-02-17T07:45:30.595Z,75.87
2023-02-17T07:46:30.555Z,75.87
2023-02-17T07:47:33.543Z,77.73
2023-02-17T07:48:30.546Z,79.44
2023-02-17T07:49:30.545Z,79.34
2023-02-17T07:50:30.487Z,79.75
2023-02-17T07:51:30.493Z,79.03
2023-02-17T07:52:30.472Z,78.31
2023-02-17T07:53:30.464Z,78.41
2023-02-17T07:54:30.478Z,77.38
2023-02-17T07:55:30.606Z,77.28
2023-02-17T07:56:30.470Z,76.35
2023-02-17T07:57:30.445Z,76.56
2023-02-17T07:58:30.403Z,75.08
2023-02-17T07:59:30.584Z,73.95
2023-02-17T08:00:30.389Z,73.81
2023-02-17T08:01:30.394Z,73.71
2023-02-17T08:02:33.391Z,73.81
2023-02-17T08:03:30.386Z,73.50
2023-02-17T08:04:30.412Z,72.96
2023-02-17T08:05:30.325Z,73.68
2023-02-17T08:06:30.338Z,72.54
2023-02-17T08:07:30.305Z,71.82
2023-02-17T08:08:30.915Z,72.34
2023-02-17T08:09:30.326Z,73.16
2023-02-17T08:10:30.325Z,72.85
2023-02-17T08:11:30.297Z,72.03
2023-02-17T08:12:30.269Z,69.73
2023-02-17T08:13:30.251Z,70.86
2023-02-17T08:14:30.291Z,72.20
2023-02-17T08:15:30.222Z,72.27
2023-02-17T08:16:30.262Z,71.66
2023-02-17T08:17:33.230Z,69.29
2023-02-17T08:18:32.421Z,69.70
2023-02-17T08:19:46.553Z,69.49
2023-02-17T08:20:31.174Z,67.54
2023-02-17T08:21:30.165Z,68.88
2023-02-17T08:22:30.179Z,70.11
2023-02-17T08:23:30.164Z,68.95
2023-02-17T08:24:31.088Z,68.74
2023-02-17T08:25:30.170Z,69.46
2023-02-17T08:26:30.144Z,67.61
2023-02-17T08:27:30.121Z,69.05
2023-02-17T08:28:30.201Z,69.87
2023-02-17T08:29:30.084Z,69.15
2023-02-17T08:30:30.131Z,68.43
2023-02-17T08:31:30.203Z,69.02
2023-02-17T08:32:33.050Z,67.99
2023-02-17T08:33:30.093Z,67.89
2023-02-17T08:34:30.088Z,67.38
2023-02-17T08:35:30.054Z,65.63
2023-02-17T08:36:30.023Z,66.31
2023-02-17T08:37:30.059Z,66.63
2023-02-17T08:38:30.018Z,66.63
2023-02-17T08:39:30.004Z,66.52
2023-02-17T08:40:29.979Z,65.70
2023-02-17T08:41:29.954Z,64.26
2023-02-17T08:42:29.996Z,65.77
2023-02-17T08:43:29.935Z,65.67
2023-02-17T08:44:30.108Z,64.75
2023-02-17T08:45:30.124Z,64.34
2023-02-17T08:46:29.941Z,64.75
2023-02-17T08:47:32.913Z,66.28
2023-02-17T08:48:29.927Z,65.16
2023-02-17T08:49:29.910Z,65.26
2023-02-17T08:50:29.928Z,65.12
2023-02-17T08:51:29.884Z,66.46
2023-02-17T08:52:29.858Z,67.90
2023-02-17T08:53:29.870Z,65.95
2023-02-17T08:54:29.865Z,66.97
2023-02-17T08:55:35.556Z,66.97
2023-02-17T08:56:30.806Z,65.84
2023-02-17T08:57:29.826Z,65.64
2023-02-17T08:58:29.812Z,65.64
2023-02-17T08:59:29.798Z,65.12
2023-02-17T09:00:29.749Z,64.59
2023-02-17T09:01:29.863Z,64.07
2023-02-17T09:02:32.769Z,64.28
2023-02-17T09:03:29.790Z,64.38
2023-02-17T09:04:29.792Z,64.14
2023-02-17T09:05:29.782Z,64.35
2023-02-17T09:06:29.736Z,64.45
2023-02-17T09:07:29.733Z,64.65
2023-02-17T09:08:29.728Z,64.04
2023-02-17T09:09:29.696Z,62.51
2023-02-17T09:10:29.673Z,62.92
2023-02-17T09:11:29.714Z,62.88
2023-02-17T09:12:29.693Z,63.09
2023-02-17T09:13:29.646Z,63.60
2023-02-17T09:14:29.645Z,63.40
2023-02-17T09:15:29.648Z,62.78
2023-02-17T09:16:29.721Z,63.68
2023-02-17T09:17:32.664Z,64.09
2023-02-17T09:18:29.589Z,63.68
2023-02-17T09:19:29.605Z,63.88
2023-02-17T09:20:29.616Z,63.78
2023-02-17T09:21:29.597Z,62.55
2023-02-17T09:22:32.249Z,62.21
2023-02-17T09:23:29.608Z,62.62
2023-02-17T09:24:29.597Z,62.62
2023-02-17T09:25:29.547Z,62.73
2023-02-17T09:26:29.673Z,62.32
2023-02-17T09:27:29.521Z,62.01
2023-02-17T09:28:29.492Z,62.01
2023-02-17T09:29:29.516Z,62.52
2023-02-17T09:30:29.500Z,61.19
2023-02-17T09:31:29.628Z,61.80
2023-02-17T09:32:32.511Z,61.70
2023-02-17T09:33:29.430Z,62.62
2023-02-17T09:34:29.429Z,62.21
2023-02-17T09:35:29.433Z,62.73
2023-02-17T09:36:29.398Z,62.73
2023-02-17T09:37:29.429Z,62.73
2023-02-17T09:38:29.410Z,62.21
2023-02-17T09:39:29.440Z,62.21
2023-02-17T09:40:30.324Z,62.83
2023-02-17T09:41:29.338Z,62.52
2023-02-17T09:42:29.346Z,63.44
2023-02-17T09:43:29.335Z,62.93
2023-02-17T09:44:29.620Z,62.42
2023-02-17T09:45:29.360Z,62.42
2023-02-17T09:46:29.367Z,62.73
2023-02-17T09:47:32.295Z,62.42
2023-02-17T09:48:29.299Z,62.73
2023-02-17T09:49:29.500Z,62.73
2023-02-17T09:50:29.236Z,62.70
2023-02-17T09:51:29.330Z,63.10
2023-02-17T09:52:29.206Z,63.24
2023-02-17T09:53:29.216Z,63.24
2023-02-17T09:54:29.276Z,62.90
2023-02-17T09:55:29.195Z,63.21
2023-02-17T09:56:29.198Z,63.51
2023-02-17T09:57:29.200Z,63.72
2023-02-17T09:58:29.185Z,63.82
2023-02-17T09:59:29.234Z,63.41
2023-02-17T10:00:29.120Z,63.51
2023-02-17T10:01:29.141Z,63.31
2023-02-17T10:02:32.106Z,63.51
2023-02-17T10:03:29.184Z,63.31
2023-02-17T10:04:29.232Z,63.21
2023-02-17T10:05:29.143Z,63.72
2023-02-17T10:06:29.072Z,63.62
2023-02-17T10:07:29.101Z,63.82
2023-02-17T10:08:29.064Z,63.82
2023-02-17T10:09:29.074Z,64.33
2023-02-17T10:10:29.075Z,63.62
2023-02-17T10:11:29.035Z,63.92
2023-02-17T10:12:29.021Z,63.18
2023-02-17T10:13:29.025Z,63.69
2023-02-17T10:14:29.026Z,63.69
2023-02-17T10:15:29.010Z,64.20
2023-02-17T10:16:29.045Z,64.61
2023-02-17T10:17:31.959Z,64.40
2023-02-17T10:18:28.956Z,64.10
2023-02-17T10:19:28.943Z,64.00
2023-02-17T10:20:29.003Z,63.79
2023-02-17T10:21:28.945Z,63.59
2023-02-17T10:22:28.962Z,63.69
2023-02-17T10:23:28.994Z,64.00
2023-02-17T10:24:28.912Z,63.79
2023-02-17T10:25:28.892Z,64.20
2023-02-17T10:26:28.986Z,63.89
2023-02-17T10:27:28.862Z,63.18
2023-02-17T10:28:28.932Z,63.48
2023-02-17T10:29:28.866Z,64.07
2023-02-17T10:30:28.904Z,64.58
2023-02-17T10:31:29.030Z,64.48
2023-02-17T10:32:32.063Z,64.07
2023-02-17T10:33:28.816Z,63.96
2023-02-17T10:34:28.851Z,64.37
2023-02-17T10:35:28.769Z,64.68
2023-02-17T10:36:28.904Z,64.68
2023-02-17T10:37:28.823Z,64.99
2023-02-17T10:38:28.780Z,64.58
2023-02-17T10:39:28.712Z,64.78
2023-02-17T10:40:28.784Z,63.35
2023-02-17T10:41:28.691Z,63.73
2023-02-17T10:42:28.703Z,63.73
2023-02-17T10:43:28.743Z,63.73
2023-02-17T10:44:28.764Z,64.24
2023-02-17T10:45:28.643Z,64.34
2023-02-17T10:46:28.723Z,64.45
2023-02-17T10:47:31.647Z,65.06
2023-02-17T10:48:28.629Z,65.44
2023-02-17T10:49:28.624Z,64.42
2023-02-17T10:50:28.590Z,64.62
2023-02-17T10:51:28.580Z,64.72
2023-02-17T10:52:28.595Z,65.13
2023-02-17T10:53:28.576Z,64.59
2023-02-17T10:54:28.580Z,64.90
2023-02-17T10:55:28.574Z,65.10
2023-02-17T10:56:28.531Z,65.10
2023-02-17T10:57:28.526Z,65.48
2023-02-17T10:58:28.543Z,65.07
2023-02-17T10:59:28.521Z,64.46
2023-02-17T11:00:28.653Z,64.05
2023-02-17T11:01:28.512Z,64.05
2023-02-17T11:02:31.461Z,63.95
2023-02-17T11:03:28.526Z,64.66
2023-02-17T11:04:28.443Z,65.07
2023-02-17T11:05:28.440Z,64.46
2023-02-17T11:06:28.424Z,64.46
2023-02-17T11:07:28.444Z,63.54
2023-02-17T11:08:28.404Z,62.32
2023-02-17T11:09:28.402Z,62.32
2023-02-17T11:10:28.384Z,63.37
2023-02-17T11:11:28.405Z,62.45
2023-02-17T11:12:28.438Z,62.24
2023-02-17T11:13:28.594Z,62.35
2023-02-17T11:14:29.333Z,62.37
2023-02-17T11:15:28.359Z,63.09
2023-02-17T11:16:28.370Z,62.58
2023-02-17T11:17:31.447Z,63.19
2023-02-17T11:18:28.308Z,63.19
2023-02-17T11:19:29.765Z,63.29
2023-02-17T11:20:28.280Z,62.58
2023-02-17T11:21:28.262Z,62.78
2023-02-17T11:22:28.299Z,63.29
2023-02-17T11:23:28.267Z,63.29
2023-02-17T11:24:28.263Z,63.19
2023-02-17T11:25:28.251Z,63.60
2023-02-17T11:26:28.231Z,64.01
2023-02-17T11:27:28.206Z,63.90
2023-02-17T11:28:28.329Z,63.19
2023-02-17T11:29:28.181Z,63.60
2023-02-17T11:30:28.178Z,63.67
2023-02-17T11:31:28.321Z,63.37
2023-02-17T11:32:31.193Z,63.47
2023-02-17T11:33:28.183Z,64.39
2023-02-17T11:34:28.204Z,63.78
2023-02-17T11:35:28.150Z,63.16
2023-02-17T11:36:28.156Z,63.98
2023-02-17T11:37:28.097Z,63.16
2023-02-17T11:38:28.126Z,63.37
2023-02-17T11:39:28.472Z,63.23
2023-02-17T11:40:28.067Z,63.34
2023-02-17T11:41:28.089Z,63.23
2023-02-17T11:42:28.081Z,62.42
2023-02-17T11:43:28.030Z,62.42
2023-02-17T11:44:28.085Z,62.52
2023-02-17T11:45:28.104Z,62.73
2023-02-17T11:46:28.017Z,62.93
2023-02-17T11:47:31.034Z,62.82
2023-02-17T11:48:28.034Z,62.42
2023-02-17T11:49:27.973Z,62.82
2023-02-17T11:50:40.386Z,63.03
2023-02-17T11:51:27.950Z,62.93
2023-02-17T11:52:27.947Z,63.10
2023-02-17T11:53:27.953Z,62.90
2023-02-17T11:54:27.974Z,62.59
2023-02-17T11:55:28.136Z,62.39
2023-02-17T11:56:27.927Z,62.70
2023-02-17T11:57:27.902Z,62.49
2023-02-17T11:58:27.932Z,62.08
2023-02-17T11:59:28.028Z,62.26
2023-02-17T12:00:27.881Z,61.65
2023-02-17T12:01:27.843Z,62.77
2023-02-17T12:02:30.858Z,61.95
2023-02-17T12:03:27.892Z,60.83
2023-02-17T12:04:27.845Z,61.54
2023-02-17T12:05:27.808Z,61.34
2023-02-17T12:06:27.879Z,61.85
2023-02-17T12:07:27.800Z,61.65
2023-02-17T12:08:27.770Z,61.75
2023-02-17T12:09:27.770Z,61.54
2023-02-17T12:10:27.759Z,61.14
2023-02-17T12:11:27.768Z,61.24
2023-02-17T12:12:27.813Z,61.34
2023-02-17T12:13:27.720Z,61.65
2023-02-17T12:14:29.730Z,61.44
2023-02-17T12:15:27.680Z,61.75
2023-02-17T12:16:27.751Z,62.36
2023-02-17T12:17:30.694Z,62.05
2023-02-17T12:18:27.704Z,62.46
2023-02-17T12:19:27.678Z,62.05
2023-02-17T12:20:27.645Z,62.46
2023-02-17T12:21:27.656Z,61.85
2023-02-17T12:22:27.649Z,61.65
2023-02-17T12:23:27.635Z,61.85
2023-02-17T12:24:27.636Z,61.85
2023-02-17T12:25:27.594Z,61.85
2023-02-17T12:26:27.602Z,61.54
2023-02-17T12:27:27.622Z,61.54
2023-02-17T12:28:27.583Z,61.85
2023-02-17T12:29:27.541Z,61.14
2023-02-17T12:30:27.774Z,61.44
2023-02-17T12:31:27.695Z,61.85
2023-02-17T12:32:30.745Z,61.65
2023-02-17T12:33:27.543Z,61.34
2023-02-17T12:34:27.529Z,61.14
2023-02-17T12:35:27.485Z,61.44
2023-02-17T12:36:27.499Z,61.54
2023-02-17T12:37:27.466Z,61.44
2023-02-17T12:38:27.462Z,61.37
2023-02-17T12:39:27.466Z,61.37
2023-02-17T12:40:27.427Z,61.54
2023-02-17T12:41:27.418Z,62.16
2023-02-17T12:42:27.451Z,61.75
2023-02-17T12:43:27.430Z,61.47
2023-02-17T12:44:27.381Z,61.04
2023-02-17T12:45:27.398Z,61.24
2023-02-17T12:46:27.460Z,61.34
2023-02-17T12:47:30.353Z,61.04
2023-02-17T12:48:27.356Z,61.34
2023-02-17T12:49:27.344Z,61.44
2023-02-17T12:50:27.355Z,62.05
2023-02-17T12:51:27.358Z,62.36
2023-02-17T12:52:27.332Z,61.75
2023-02-17T12:53:27.295Z,62.05
2023-02-17T12:54:27.317Z,62.66